sensor_id;sensor_type;location;lat;lon;timestamp;temperature;humidity
25622;DHT22;13487;39.360;22.962;2022-12-05T00:01:34;13.30;99.90
25622;DHT22;13487;39.360;22.962;2022-12-05T00:04:04;13.30;99.90
25622;DHT22;13487;39.360;22.962;2022-12-05T00:06:30;13.40;99.90
25622;DHT22;13487;39.360;22.962;2022-12-05T00:08:57;13.40;99.90
25622;DHT22;13487;39.360;22.962;2022-12-05T00:11:26;13.30;99.90
25622;DHT22;13487;39.360;22.962;2022-12-05T00:13:54;13.30;99.90
25622;DHT22;13487;39.360;22.962;2022-12-05T00:16:22;13.30;99.90
25622;DHT22;13487;39.360;22.962;2022-12-05T00:18:49;13.20;99.90
25622;DHT22;13487;39.360;22.962;2022-12-05T00:21:18;13.10;99.90
25622;DHT22;13487;39.360;22.962;2022-12-05T00:23:45;13.00;99.90
25622;DHT22;13487;39.360;22.962;2022-12-05T00:26:11;13.00;99.90
25622;DHT22;13487;39.360;22.962;2022-12-05T00:28:38;12.90;99.90
25622;DHT22;13487;39.360;22.962;2022-12-05T00:31:10;12.90;99.90
25622;DHT22;13487;39.360;22.962;2022-12-05T00:33:37;12.90;99.90
25622;DHT22;13487;39.360;22.962;2022-12-05T00:36:10;12.90;99.90
25622;DHT22;13487;39.360;22.962;2022-12-05T00:38:36;13.00;99.90
25622;DHT22;13487;39.360;22.962;2022-12-05T00:41:05;13.00;99.90
25622;DHT22;13487;39.360;22.962;2022-12-05T00:43:32;13.00;99.90
25622;DHT22;13487;39.360;22.962;2022-12-05T00:46:17;13.00;99.90
25622;DHT22;13487;39.360;22.962;2022-12-05T00:48:43;13.00;99.90
25622;DHT22;13487;39.360;22.962;2022-12-05T00:51:19;12.90;99.90
25622;DHT22;13487;39.360;22.962;2022-12-05T00:53:46;12.90;99.90
25622;DHT22;13487;39.360;22.962;2022-12-05T00:56:19;13.00;99.90
25622;DHT22;13487;39.360;22.962;2022-12-05T00:58:46;12.90;99.90
25622;DHT22;13487;39.360;22.962;2022-12-05T01:01:26;12.80;99.90
25622;DHT22;13487;39.360;22.962;2022-12-05T01:03:55;12.70;99.90
25622;DHT22;13487;39.360;22.962;2022-12-05T01:06:22;12.70;99.90
25622;DHT22;13487;39.360;22.962;2022-12-05T01:08:49;12.70;99.90
25622;DHT22;13487;39.360;22.962;2022-12-05T01:11:17;12.60;99.90
25622;DHT22;13487;39.360;22.962;2022-12-05T01:13:44;12.60;99.90
25622;DHT22;13487;39.360;22.962;2022-12-05T01:16:39;12.70;99.90
25622;DHT22;13487;39.360;22.962;2022-12-05T01:19:15;12.70;99.90
25622;DHT22;13487;39.360;22.962;2022-12-05T01:21:42;12.60;99.90
25622;DHT22;13487;39.360;22.962;2022-12-05T01:24:10;12.60;99.90
25622;DHT22;13487;39.360;22.962;2022-12-05T01:26:36;12.60;99.90
25622;DHT22;13487;39.360;22.962;2022-12-05T01:29:03;12.60;99.90
25622;DHT22;13487;39.360;22.962;2022-12-05T01:31:36;12.60;99.90
25622;DHT22;13487;39.360;22.962;2022-12-05T01:34:04;12.70;99.90
25622;DHT22;13487;39.360;22.962;2022-12-05T01:36:30;12.80;99.90
25622;DHT22;13487;39.360;22.962;2022-12-05T01:38:56;12.90;99.90
25622;DHT22;13487;39.360;22.962;2022-12-05T01:41:31;12.90;99.90
25622;DHT22;13487;39.360;22.962;2022-12-05T01:46:53;12.90;99.90
25622;DHT22;13487;39.360;22.962;2022-12-05T01:49:39;12.80;99.90
25622;DHT22;13487;39.360;22.962;2022-12-05T01:52:19;12.90;99.90
25622;DHT22;13487;39.360;22.962;2022-12-05T01:54:47;12.90;99.90
25622;DHT22;13487;39.360;22.962;2022-12-05T01:57:14;12.90;99.90
25622;DHT22;13487;39.360;22.962;2022-12-05T01:59:48;12.80;99.90
25622;DHT22;13487;39.360;22.962;2022-12-05T02:02:14;12.80;99.90
25622;DHT22;13487;39.360;22.962;2022-12-05T02:05:01;12.70;99.90
25622;DHT22;13487;39.360;22.962;2022-12-05T02:07:28;12.80;99.90
25622;DHT22;13487;39.360;22.962;2022-12-05T02:09:55;12.70;99.90
25622;DHT22;13487;39.360;22.962;2022-12-05T02:12:21;12.80;99.90
25622;DHT22;13487;39.360;22.962;2022-12-05T02:14:51;12.80;99.90
25622;DHT22;13487;39.360;22.962;2022-12-05T02:22:56;13.20;99.90
25622;DHT22;13487;39.360;22.962;2022-12-05T02:26:07;13.30;99.90
25622;DHT22;13487;39.360;22.962;2022-12-05T02:39:14;13.30;99.90
25622;DHT22;13487;39.360;22.962;2022-12-05T02:41:52;13.30;99.90
25622;DHT22;13487;39.360;22.962;2022-12-05T02:44:33;13.40;99.90
25622;DHT22;13487;39.360;22.962;2022-12-05T02:47:00;13.50;99.90
25622;DHT22;13487;39.360;22.962;2022-12-05T02:49:31;13.50;99.90
25622;DHT22;13487;39.360;22.962;2022-12-05T02:51:59;13.50;99.90
25622;DHT22;13487;39.360;22.962;2022-12-05T02:54:28;13.40;99.90
25622;DHT22;13487;39.360;22.962;2022-12-05T02:56:57;13.30;99.90
25622;DHT22;13487;39.360;22.962;2022-12-05T02:59:24;13.10;99.90
25622;DHT22;13487;39.360;22.962;2022-12-05T03:01:50;13.00;99.90
25622;DHT22;13487;39.360;22.962;2022-12-05T03:04:17;12.80;99.90
25622;DHT22;13487;39.360;22.962;2022-12-05T03:06:45;12.80;99.90
25622;DHT22;13487;39.360;22.962;2022-12-05T03:09:18;12.80;99.90
25622;DHT22;13487;39.360;22.962;2022-12-05T03:11:47;12.80;99.90
25622;DHT22;13487;39.360;22.962;2022-12-05T03:14:22;12.90;99.90
25622;DHT22;13487;39.360;22.962;2022-12-05T03:16:53;12.90;99.90
25622;DHT22;13487;39.360;22.962;2022-12-05T03:19:47;13.00;99.90
25622;DHT22;13487;39.360;22.962;2022-12-05T03:22:31;13.00;99.90
25622;DHT22;13487;39.360;22.962;2022-12-05T03:24:58;13.00;99.90
25622;DHT22;13487;39.360;22.962;2022-12-05T03:30:08;13.10;99.90
25622;DHT22;13487;39.360;22.962;2022-12-05T03:33:00;13.10;99.90
25622;DHT22;13487;39.360;22.962;2022-12-05T03:41:30;13.20;99.90
25622;DHT22;13487;39.360;22.962;2022-12-05T03:44:09;13.20;99.90
25622;DHT22;13487;39.360;22.962;2022-12-05T03:49:12;13.20;99.90
25622;DHT22;13487;39.360;22.962;2022-12-05T03:51:51;13.20;99.90
25622;DHT22;13487;39.360;22.962;2022-12-05T03:54:28;13.20;99.90
25622;DHT22;13487;39.360;22.962;2022-12-05T03:57:07;13.10;99.90
25622;DHT22;13487;39.360;22.962;2022-12-05T03:59:43;13.20;99.90
25622;DHT22;13487;39.360;22.962;2022-12-05T04:02:14;13.30;99.90
25622;DHT22;13487;39.360;22.962;2022-12-05T04:04:58;13.30;99.90
25622;DHT22;13487;39.360;22.962;2022-12-05T04:07:28;13.20;99.90
25622;DHT22;13487;39.360;22.962;2022-12-05T04:10:00;13.20;99.90
25622;DHT22;13487;39.360;22.962;2022-12-05T04:12:30;13.20;99.90
25622;DHT22;13487;39.360;22.962;2022-12-05T04:15:01;13.10;99.90
25622;DHT22;13487;39.360;22.962;2022-12-05T04:17:44;13.10;99.90
25622;DHT22;13487;39.360;22.962;2022-12-05T04:20:15;13.10;99.90
25622;DHT22;13487;39.360;22.962;2022-12-05T04:23:01;13.00;99.90
25622;DHT22;13487;39.360;22.962;2022-12-05T04:25:40;13.10;99.90
25622;DHT22;13487;39.360;22.962;2022-12-05T04:28:33;13.10;99.90
25622;DHT22;13487;39.360;22.962;2022-12-05T04:31:31;13.10;99.90
25622;DHT22;13487;39.360;22.962;2022-12-05T04:34:05;13.10;99.90
25622;DHT22;13487;39.360;22.962;2022-12-05T04:36:54;13.00;99.90
25622;DHT22;13487;39.360;22.962;2022-12-05T04:39:43;13.10;99.90
25622;DHT22;13487;39.360;22.962;2022-12-05T04:42:13;13.00;99.90
25622;DHT22;13487;39.360;22.962;2022-12-05T04:44:50;13.10;99.90
25622;DHT22;13487;39.360;22.962;2022-12-05T04:47:19;13.20;99.90
25622;DHT22;13487;39.360;22.962;2022-12-05T04:49:45;13.20;99.90
25622;DHT22;13487;39.360;22.962;2022-12-05T04:52:12;13.10;99.90
25622;DHT22;13487;39.360;22.962;2022-12-05T04:57:09;13.30;99.90
25622;DHT22;13487;39.360;22.962;2022-12-05T04:59:37;13.30;99.90
25622;DHT22;13487;39.360;22.962;2022-12-05T05:02:10;13.40;99.90
25622;DHT22;13487;39.360;22.962;2022-12-05T05:04:44;13.50;99.90
25622;DHT22;13487;39.360;22.962;2022-12-05T05:07:12;13.30;99.90
25622;DHT22;13487;39.360;22.962;2022-12-05T05:09:39;13.10;99.90
25622;DHT22;13487;39.360;22.962;2022-12-05T05:12:06;13.10;99.90
25622;DHT22;13487;39.360;22.962;2022-12-05T05:14:32;13.00;99.90
25622;DHT22;13487;39.360;22.962;2022-12-05T05:16:58;13.10;99.90
25622;DHT22;13487;39.360;22.962;2022-12-05T05:19:24;13.10;99.90
25622;DHT22;13487;39.360;22.962;2022-12-05T05:21:50;13.00;99.90
25622;DHT22;13487;39.360;22.962;2022-12-05T05:24:16;13.00;99.90
25622;DHT22;13487;39.360;22.962;2022-12-05T05:26:44;13.00;99.90
25622;DHT22;13487;39.360;22.962;2022-12-05T05:29:11;12.90;99.90
25622;DHT22;13487;39.360;22.962;2022-12-05T05:31:38;12.90;99.90
25622;DHT22;13487;39.360;22.962;2022-12-05T05:34:04;12.80;99.90
25622;DHT22;13487;39.360;22.962;2022-12-05T05:36:30;12.90;99.90
25622;DHT22;13487;39.360;22.962;2022-12-05T05:38:58;12.90;99.90
25622;DHT22;13487;39.360;22.962;2022-12-05T05:41:30;13.00;99.90
25622;DHT22;13487;39.360;22.962;2022-12-05T05:43:56;12.90;99.90
25622;DHT22;13487;39.360;22.962;2022-12-05T05:46:24;13.00;99.90
25622;DHT22;13487;39.360;22.962;2022-12-05T05:48:50;13.00;99.90
25622;DHT22;13487;39.360;22.962;2022-12-05T05:51:17;13.00;99.90
25622;DHT22;13487;39.360;22.962;2022-12-05T05:53:44;13.00;99.90
25622;DHT22;13487;39.360;22.962;2022-12-05T05:56:13;13.00;99.90
25622;DHT22;13487;39.360;22.962;2022-12-05T05:58:41;12.90;99.90
25622;DHT22;13487;39.360;22.962;2022-12-05T06:01:17;12.90;99.90
25622;DHT22;13487;39.360;22.962;2022-12-05T06:03:45;12.90;99.90
25622;DHT22;13487;39.360;22.962;2022-12-05T06:06:12;12.90;99.90
25622;DHT22;13487;39.360;22.962;2022-12-05T06:08:41;12.80;99.90
25622;DHT22;13487;39.360;22.962;2022-12-05T06:11:11;12.90;99.90
25622;DHT22;13487;39.360;22.962;2022-12-05T06:13:38;13.00;99.90
25622;DHT22;13487;39.360;22.962;2022-12-05T06:16:05;13.00;99.90
25622;DHT22;13487;39.360;22.962;2022-12-05T06:18:32;13.00;99.90
25622;DHT22;13487;39.360;22.962;2022-12-05T06:20:58;12.90;99.90
25622;DHT22;13487;39.360;22.962;2022-12-05T06:23:24;12.90;99.90
25622;DHT22;13487;39.360;22.962;2022-12-05T06:25:53;12.90;99.90
25622;DHT22;13487;39.360;22.962;2022-12-05T06:28:21;12.90;99.90
25622;DHT22;13487;39.360;22.962;2022-12-05T06:30:47;12.90;99.90
25622;DHT22;13487;39.360;22.962;2022-12-05T06:33:14;12.80;99.90
25622;DHT22;13487;39.360;22.962;2022-12-05T06:35:40;12.90;99.90
25622;DHT22;13487;39.360;22.962;2022-12-05T06:38:06;12.90;99.90
25622;DHT22;13487;39.360;22.962;2022-12-05T06:40:33;12.80;99.90
25622;DHT22;13487;39.360;22.962;2022-12-05T06:42:59;12.80;99.90
25622;DHT22;13487;39.360;22.962;2022-12-05T06:45:25;12.90;99.90
25622;DHT22;13487;39.360;22.962;2022-12-05T06:47:51;12.90;99.90
25622;DHT22;13487;39.360;22.962;2022-12-05T06:50:18;13.00;99.90
25622;DHT22;13487;39.360;22.962;2022-12-05T06:52:43;13.00;99.90
25622;DHT22;13487;39.360;22.962;2022-12-05T06:55:10;13.00;99.90
25622;DHT22;13487;39.360;22.962;2022-12-05T06:57:35;13.10;99.90
25622;DHT22;13487;39.360;22.962;2022-12-05T07:00:03;13.10;99.90
25622;DHT22;13487;39.360;22.962;2022-12-05T07:02:50;13.00;99.90
25622;DHT22;13487;39.360;22.962;2022-12-05T07:05:16;13.10;99.90
25622;DHT22;13487;39.360;22.962;2022-12-05T07:07:42;13.10;99.90
25622;DHT22;13487;39.360;22.962;2022-12-05T07:10:07;13.00;99.90
25622;DHT22;13487;39.360;22.962;2022-12-05T07:12:33;13.00;99.90
25622;DHT22;13487;39.360;22.962;2022-12-05T07:15:00;13.00;99.90
25622;DHT22;13487;39.360;22.962;2022-12-05T07:17:26;13.10;99.90
25622;DHT22;13487;39.360;22.962;2022-12-05T07:19:52;13.10;99.90
25622;DHT22;13487;39.360;22.962;2022-12-05T07:22:20;13.00;99.90
25622;DHT22;13487;39.360;22.962;2022-12-05T07:24:46;13.10;99.90
25622;DHT22;13487;39.360;22.962;2022-12-05T07:27:13;13.10;99.90
25622;DHT22;13487;39.360;22.962;2022-12-05T07:29:39;13.10;99.90
25622;DHT22;13487;39.360;22.962;2022-12-05T07:32:05;13.10;99.90
25622;DHT22;13487;39.360;22.962;2022-12-05T07:34:31;13.20;99.90
25622;DHT22;13487;39.360;22.962;2022-12-05T07:36:57;13.20;99.90
25622;DHT22;13487;39.360;22.962;2022-12-05T07:39:23;13.10;99.90
25622;DHT22;13487;39.360;22.962;2022-12-05T07:41:49;13.10;99.90
25622;DHT22;13487;39.360;22.962;2022-12-05T07:44:14;13.10;99.90
25622;DHT22;13487;39.360;22.962;2022-12-05T07:46:40;13.10;99.90
25622;DHT22;13487;39.360;22.962;2022-12-05T07:49:06;13.10;99.90
25622;DHT22;13487;39.360;22.962;2022-12-05T07:51:32;13.10;99.90
25622;DHT22;13487;39.360;22.962;2022-12-05T07:53:59;13.20;99.90
25622;DHT22;13487;39.360;22.962;2022-12-05T07:56:26;13.30;99.90
25622;DHT22;13487;39.360;22.962;2022-12-05T07:58:52;13.30;99.90
25622;DHT22;13487;39.360;22.962;2022-12-05T08:01:23;13.40;99.90
25622;DHT22;13487;39.360;22.962;2022-12-05T08:03:51;13.40;99.90
25622;DHT22;13487;39.360;22.962;2022-12-05T08:06:19;13.50;99.90
25622;DHT22;13487;39.360;22.962;2022-12-05T08:08:46;13.50;99.90
25622;DHT22;13487;39.360;22.962;2022-12-05T08:11:19;13.50;99.90
25622;DHT22;13487;39.360;22.962;2022-12-05T08:13:45;13.40;99.90
25622;DHT22;13487;39.360;22.962;2022-12-05T08:16:19;13.50;99.90
25622;DHT22;13487;39.360;22.962;2022-12-05T08:18:45;13.50;99.90
25622;DHT22;13487;39.360;22.962;2022-12-05T08:21:14;13.50;99.90
25622;DHT22;13487;39.360;22.962;2022-12-05T08:23:40;13.50;99.90
25622;DHT22;13487;39.360;22.962;2022-12-05T08:26:10;13.50;99.90
25622;DHT22;13487;39.360;22.962;2022-12-05T08:28:37;13.60;99.90
25622;DHT22;13487;39.360;22.962;2022-12-05T08:31:07;13.60;99.90
25622;DHT22;13487;39.360;22.962;2022-12-05T08:33:33;13.70;99.90
25622;DHT22;13487;39.360;22.962;2022-12-05T08:36:01;13.70;99.90
25622;DHT22;13487;39.360;22.962;2022-12-05T08:38:27;13.70;99.90
25622;DHT22;13487;39.360;22.962;2022-12-05T08:40:53;13.80;99.90
25622;DHT22;13487;39.360;22.962;2022-12-05T08:43:18;13.90;99.90
25622;DHT22;13487;39.360;22.962;2022-12-05T08:45:51;13.90;99.90
25622;DHT22;13487;39.360;22.962;2022-12-05T08:48:17;14.00;99.90
25622;DHT22;13487;39.360;22.962;2022-12-05T08:50:44;14.00;99.90
25622;DHT22;13487;39.360;22.962;2022-12-05T08:53:10;13.80;99.90
25622;DHT22;13487;39.360;22.962;2022-12-05T08:55:35;13.80;99.90
25622;DHT22;13487;39.360;22.962;2022-12-05T08:58:01;13.90;99.90
25622;DHT22;13487;39.360;22.962;2022-12-05T09:00:27;13.80;99.90
25622;DHT22;13487;39.360;22.962;2022-12-05T09:02:53;13.80;99.90
25622;DHT22;13487;39.360;22.962;2022-12-05T09:05:18;13.90;99.90
25622;DHT22;13487;39.360;22.962;2022-12-05T09:07:44;13.80;99.90
25622;DHT22;13487;39.360;22.962;2022-12-05T09:10:10;13.90;99.90
25622;DHT22;13487;39.360;22.962;2022-12-05T09:12:36;13.80;99.90
25622;DHT22;13487;39.360;22.962;2022-12-05T09:15:05;13.80;99.90
25622;DHT22;13487;39.360;22.962;2022-12-05T09:17:30;13.80;99.90
25622;DHT22;13487;39.360;22.962;2022-12-05T09:19:56;14.00;99.90
25622;DHT22;13487;39.360;22.962;2022-12-05T09:22:22;13.80;99.90
25622;DHT22;13487;39.360;22.962;2022-12-05T09:24:48;13.80;99.90
25622;DHT22;13487;39.360;22.962;2022-12-05T09:27:14;13.90;99.90
25622;DHT22;13487;39.360;22.962;2022-12-05T09:29:40;14.00;99.90
25622;DHT22;13487;39.360;22.962;2022-12-05T09:32:06;13.90;99.90
25622;DHT22;13487;39.360;22.962;2022-12-05T09:34:31;14.00;99.90
25622;DHT22;13487;39.360;22.962;2022-12-05T09:36:57;14.10;99.90
25622;DHT22;13487;39.360;22.962;2022-12-05T09:39:24;14.20;99.90
25622;DHT22;13487;39.360;22.962;2022-12-05T09:50:43;14.20;99.90
25622;DHT22;13487;39.360;22.962;2022-12-05T09:53:29;14.30;99.90
25622;DHT22;13487;39.360;22.962;2022-12-05T10:07:02;14.60;99.90
25622;DHT22;13487;39.360;22.962;2022-12-05T10:09:50;14.80;99.90
25622;DHT22;13487;39.360;22.962;2022-12-05T10:15:37;15.10;99.90
25622;DHT22;13487;39.360;22.962;2022-12-05T10:18:26;15.30;99.90
25622;DHT22;13487;39.360;22.962;2022-12-05T10:23:57;15.50;99.90
25622;DHT22;13487;39.360;22.962;2022-12-05T10:27:10;15.50;99.90
25622;DHT22;13487;39.360;22.962;2022-12-05T10:29:22;15.50;99.90
25622;DHT22;13487;39.360;22.962;2022-12-05T10:31:53;15.60;99.90
25622;DHT22;13487;39.360;22.962;2022-12-05T10:34:28;15.60;99.90
25622;DHT22;13487;39.360;22.962;2022-12-05T10:39:33;15.30;99.90
25622;DHT22;13487;39.360;22.962;2022-12-05T10:41:59;15.30;99.90
25622;DHT22;13487;39.360;22.962;2022-12-05T10:44:25;15.20;99.90
25622;DHT22;13487;39.360;22.962;2022-12-05T10:46:51;15.20;99.90
25622;DHT22;13487;39.360;22.962;2022-12-05T10:49:17;15.30;99.90
25622;DHT22;13487;39.360;22.962;2022-12-05T10:51:45;15.20;99.90
25622;DHT22;13487;39.360;22.962;2022-12-05T10:54:27;15.10;99.90
25622;DHT22;13487;39.360;22.962;2022-12-05T10:56:54;14.90;99.90
25622;DHT22;13487;39.360;22.962;2022-12-05T10:59:25;14.80;99.90
25622;DHT22;13487;39.360;22.962;2022-12-05T11:01:54;15.00;99.90
25622;DHT22;13487;39.360;22.962;2022-12-05T11:04:30;14.90;99.90
25622;DHT22;13487;39.360;22.962;2022-12-05T11:06:58;15.00;99.90
25622;DHT22;13487;39.360;22.962;2022-12-05T11:12:22;15.00;99.90
25622;DHT22;13487;39.360;22.962;2022-12-05T11:17:41;15.10;99.90
25622;DHT22;13487;39.360;22.962;2022-12-05T11:22:56;15.10;99.90
25622;DHT22;13487;39.360;22.962;2022-12-05T11:25:30;15.10;99.90
25622;DHT22;13487;39.360;22.962;2022-12-05T11:27:58;15.00;99.90
25622;DHT22;13487;39.360;22.962;2022-12-05T11:30:27;15.00;99.90
25622;DHT22;13487;39.360;22.962;2022-12-05T11:35:45;15.00;99.90
25622;DHT22;13487;39.360;22.962;2022-12-05T11:38:11;15.10;99.90
25622;DHT22;13487;39.360;22.962;2022-12-05T11:46:25;15.20;99.90
25622;DHT22;13487;39.360;22.962;2022-12-05T11:52:23;15.50;99.90
25622;DHT22;13487;39.360;22.962;2022-12-05T12:00:20;15.50;99.90
25622;DHT22;13487;39.360;22.962;2022-12-05T12:03:14;15.60;99.90
25622;DHT22;13487;39.360;22.962;2022-12-05T12:15:04;15.70;99.90
25622;DHT22;13487;39.360;22.962;2022-12-05T12:17:53;15.70;99.90
25622;DHT22;13487;39.360;22.962;2022-12-05T12:23:45;15.60;99.90
25622;DHT22;13487;39.360;22.962;2022-12-05T12:26:21;15.30;99.90
25622;DHT22;13487;39.360;22.962;2022-12-05T12:39:51;15.00;99.90
25622;DHT22;13487;39.360;22.962;2022-12-05T12:50:39;15.00;99.90
25622;DHT22;13487;39.360;22.962;2022-12-05T12:53:43;14.90;99.90
25622;DHT22;13487;39.360;22.962;2022-12-05T13:01:54;15.00;99.90
25622;DHT22;13487;39.360;22.962;2022-12-05T13:04:35;14.90;99.90
25622;DHT22;13487;39.360;22.962;2022-12-05T13:07:15;15.00;99.90
25622;DHT22;13487;39.360;22.962;2022-12-05T13:09:53;15.10;99.90
25622;DHT22;13487;39.360;22.962;2022-12-05T13:12:28;15.10;99.90
25622;DHT22;13487;39.360;22.962;2022-12-05T13:15:06;15.10;99.90
25622;DHT22;13487;39.360;22.962;2022-12-05T13:17:36;15.30;99.90
25622;DHT22;13487;39.360;22.962;2022-12-05T13:20:04;15.30;99.90
25622;DHT22;13487;39.360;22.962;2022-12-05T13:22:30;15.20;99.90
25622;DHT22;13487;39.360;22.962;2022-12-05T13:24:56;15.20;99.90
25622;DHT22;13487;39.360;22.962;2022-12-05T13:27:24;15.20;99.90
25622;DHT22;13487;39.360;22.962;2022-12-05T13:29:59;15.10;99.90
25622;DHT22;13487;39.360;22.962;2022-12-05T13:32:36;15.10;99.90
25622;DHT22;13487;39.360;22.962;2022-12-05T13:37:32;15.10;99.90
25622;DHT22;13487;39.360;22.962;2022-12-05T13:43:18;15.00;99.90
25622;DHT22;13487;39.360;22.962;2022-12-05T13:48:21;15.00;99.90
25622;DHT22;13487;39.360;22.962;2022-12-05T13:50:55;14.90;99.90
25622;DHT22;13487;39.360;22.962;2022-12-05T13:58:44;14.70;99.90
25622;DHT22;13487;39.360;22.962;2022-12-05T14:15:02;14.60;99.90
25622;DHT22;13487;39.360;22.962;2022-12-05T14:17:31;14.60;99.90
25622;DHT22;13487;39.360;22.962;2022-12-05T14:28:34;14.50;99.90
25622;DHT22;13487;39.360;22.962;2022-12-05T14:31:13;14.40;99.90
25622;DHT22;13487;39.360;22.962;2022-12-05T14:33:41;14.30;99.90
25622;DHT22;13487;39.360;22.962;2022-12-05T14:36:13;14.30;99.90
25622;DHT22;13487;39.360;22.962;2022-12-05T14:38:41;14.30;99.90
25622;DHT22;13487;39.360;22.962;2022-12-05T14:43:40;14.40;99.90
25622;DHT22;13487;39.360;22.962;2022-12-05T14:46:17;14.30;99.90
25622;DHT22;13487;39.360;22.962;2022-12-05T14:48:46;14.40;99.90
25622;DHT22;13487;39.360;22.962;2022-12-05T14:54:15;14.30;99.90
25622;DHT22;13487;39.360;22.962;2022-12-05T14:56:59;14.30;99.90
25622;DHT22;13487;39.360;22.962;2022-12-05T15:02:23;14.20;99.90
25622;DHT22;13487;39.360;22.962;2022-12-05T15:05:28;14.20;99.90
25622;DHT22;13487;39.360;22.962;2022-12-05T15:07:56;14.30;99.90
25622;DHT22;13487;39.360;22.962;2022-12-05T15:10:27;14.30;99.90
25622;DHT22;13487;39.360;22.962;2022-12-05T15:12:59;14.30;99.90
25622;DHT22;13487;39.360;22.962;2022-12-05T15:31:28;14.10;99.90
25622;DHT22;13487;39.360;22.962;2022-12-05T15:33:58;14.00;99.90
25622;DHT22;13487;39.360;22.962;2022-12-05T15:36:31;14.10;99.90
25622;DHT22;13487;39.360;22.962;2022-12-05T15:39:05;14.10;99.90
25622;DHT22;13487;39.360;22.962;2022-12-05T15:41:31;14.20;99.90
25622;DHT22;13487;39.360;22.962;2022-12-05T15:43:57;14.20;99.90
25622;DHT22;13487;39.360;22.962;2022-12-05T15:46:24;14.20;99.90
25622;DHT22;13487;39.360;22.962;2022-12-05T15:48:56;14.20;99.90
25622;DHT22;13487;39.360;22.962;2022-12-05T15:51:35;14.20;99.90
25622;DHT22;13487;39.360;22.962;2022-12-05T15:54:26;14.20;99.90
25622;DHT22;13487;39.360;22.962;2022-12-05T15:57:09;14.20;99.90
25622;DHT22;13487;39.360;22.962;2022-12-05T15:59:48;14.30;99.90
25622;DHT22;13487;39.360;22.962;2022-12-05T16:02:24;14.30;99.90
25622;DHT22;13487;39.360;22.962;2022-12-05T16:04:56;14.30;99.90
25622;DHT22;13487;39.360;22.962;2022-12-05T16:07:24;14.20;99.90
25622;DHT22;13487;39.360;22.962;2022-12-05T16:09:55;14.20;99.90
25622;DHT22;13487;39.360;22.962;2022-12-05T16:15:01;14.00;99.90
25622;DHT22;13487;39.360;22.962;2022-12-05T16:17:30;13.90;99.90
25622;DHT22;13487;39.360;22.962;2022-12-05T16:20:23;14.00;99.90
25622;DHT22;13487;39.360;22.962;2022-12-05T16:22:52;14.00;99.90
25622;DHT22;13487;39.360;22.962;2022-12-05T16:25:26;14.10;99.90
25622;DHT22;13487;39.360;22.962;2022-12-05T16:30:36;14.00;99.90
25622;DHT22;13487;39.360;22.962;2022-12-05T16:33:11;14.00;99.90
25622;DHT22;13487;39.360;22.962;2022-12-05T16:35:41;13.90;99.90
25622;DHT22;13487;39.360;22.962;2022-12-05T16:38:21;14.00;99.90
25622;DHT22;13487;39.360;22.962;2022-12-05T16:45:51;14.00;99.90
25622;DHT22;13487;39.360;22.962;2022-12-05T16:48:30;14.00;99.90
25622;DHT22;13487;39.360;22.962;2022-12-05T16:51:22;14.00;99.90
25622;DHT22;13487;39.360;22.962;2022-12-05T16:53:55;13.90;99.90
25622;DHT22;13487;39.360;22.962;2022-12-05T16:56:31;13.90;99.90
25622;DHT22;13487;39.360;22.962;2022-12-05T16:59:04;13.90;99.90
25622;DHT22;13487;39.360;22.962;2022-12-05T17:01:30;13.70;99.90
25622;DHT22;13487;39.360;22.962;2022-12-05T17:03:56;13.70;99.90
25622;DHT22;13487;39.360;22.962;2022-12-05T17:06:24;13.70;99.90
25622;DHT22;13487;39.360;22.962;2022-12-05T17:08:51;13.80;99.90
25622;DHT22;13487;39.360;22.962;2022-12-05T17:11:21;13.80;99.90
25622;DHT22;13487;39.360;22.962;2022-12-05T17:13:48;13.80;99.90
25622;DHT22;13487;39.360;22.962;2022-12-05T17:16:15;13.90;99.90
25622;DHT22;13487;39.360;22.962;2022-12-05T17:18:43;13.90;99.90
25622;DHT22;13487;39.360;22.962;2022-12-05T17:21:20;13.90;99.90
25622;DHT22;13487;39.360;22.962;2022-12-05T17:23:47;13.90;99.90
25622;DHT22;13487;39.360;22.962;2022-12-05T17:26:18;13.90;99.90
25622;DHT22;13487;39.360;22.962;2022-12-05T17:28:44;13.80;99.90
25622;DHT22;13487;39.360;22.962;2022-12-05T17:31:19;13.70;99.90
25622;DHT22;13487;39.360;22.962;2022-12-05T17:33:47;13.80;99.90
25622;DHT22;13487;39.360;22.962;2022-12-05T17:36:13;13.80;99.90
25622;DHT22;13487;39.360;22.962;2022-12-05T17:38:39;13.80;99.90
25622;DHT22;13487;39.360;22.962;2022-12-05T17:41:05;13.80;99.90
25622;DHT22;13487;39.360;22.962;2022-12-05T17:43:31;13.80;99.90
25622;DHT22;13487;39.360;22.962;2022-12-05T17:46:01;13.80;99.90
25622;DHT22;13487;39.360;22.962;2022-12-05T17:48:28;13.70;99.90
25622;DHT22;13487;39.360;22.962;2022-12-05T17:50:54;13.70;99.90
25622;DHT22;13487;39.360;22.962;2022-12-05T17:53:22;13.80;99.90
25622;DHT22;13487;39.360;22.962;2022-12-05T17:55:48;13.90;99.90
25622;DHT22;13487;39.360;22.962;2022-12-05T17:58:15;13.80;99.90
25622;DHT22;13487;39.360;22.962;2022-12-05T18:00:42;13.70;99.90
25622;DHT22;13487;39.360;22.962;2022-12-05T18:03:12;13.70;99.90
25622;DHT22;13487;39.360;22.962;2022-12-05T18:05:39;13.70;99.90
25622;DHT22;13487;39.360;22.962;2022-12-05T18:08:05;13.70;99.90
25622;DHT22;13487;39.360;22.962;2022-12-05T18:10:32;13.70;99.90
25622;DHT22;13487;39.360;22.962;2022-12-05T18:12:58;13.70;99.90
25622;DHT22;13487;39.360;22.962;2022-12-05T18:15:24;13.70;99.90
25622;DHT22;13487;39.360;22.962;2022-12-05T18:17:49;13.70;99.90
25622;DHT22;13487;39.360;22.962;2022-12-05T18:20:15;13.60;99.90
25622;DHT22;13487;39.360;22.962;2022-12-05T18:22:41;13.70;99.90
25622;DHT22;13487;39.360;22.962;2022-12-05T18:25:08;13.60;99.90
25622;DHT22;13487;39.360;22.962;2022-12-05T18:27:35;13.70;99.90
25622;DHT22;13487;39.360;22.962;2022-12-05T18:30:01;13.60;99.90
25622;DHT22;13487;39.360;22.962;2022-12-05T18:32:28;13.60;99.90
25622;DHT22;13487;39.360;22.962;2022-12-05T18:34:55;13.60;99.90
25622;DHT22;13487;39.360;22.962;2022-12-05T18:37:24;13.60;99.90
25622;DHT22;13487;39.360;22.962;2022-12-05T18:39:49;13.60;99.90
25622;DHT22;13487;39.360;22.962;2022-12-05T18:42:15;13.50;99.90
25622;DHT22;13487;39.360;22.962;2022-12-05T18:44:41;13.50;99.90
25622;DHT22;13487;39.360;22.962;2022-12-05T18:47:07;13.50;99.90
25622;DHT22;13487;39.360;22.962;2022-12-05T18:49:33;13.50;99.90
25622;DHT22;13487;39.360;22.962;2022-12-05T18:51:59;13.50;99.90